sensor_id;sensor_type;location;lat;lon;timestamp;P1;durP1;ratioP1;P2;durP2;ratioP2
5674;SDS011;2860;54.284;10.158;2023-10-13T00:00:29;3.50;;;3.30;;
5674;SDS011;2860;54.284;10.158;2023-10-13T00:02:58;6.22;;;3.15;;
5674;SDS011;2860;54.284;10.158;2023-10-13T00:05:26;8.80;;;3.70;;
5674;SDS011;2860;54.284;10.158;2023-10-13T00:07:52;12.07;;;2.78;;
5674;SDS011;2860;54.284;10.158;2023-10-13T00:10:18;15.45;;;3.35;;
5674;SDS011;2860;54.284;10.158;2023-10-13T00:12:44;9.57;;;3.17;;
5674;SDS011;2860;54.284;10.158;2023-10-13T00:15:14;3.63;;;2.72;;
5674;SDS011;2860;54.284;10.158;2023-10-13T00:17:42;4.47;;;2.70;;
5674;SDS011;2860;54.284;10.158;2023-10-13T00:20:08;5.57;;;2.33;;
5674;SDS011;2860;54.284;10.158;2023-10-13T00:22:53;5.35;;;2.50;;
5674;SDS011;2860;54.284;10.158;2023-10-13T00:25:22;5.35;;;2.33;;
5674;SDS011;2860;54.284;10.158;2023-10-13T00:27:52;8.25;;;2.22;;
5674;SDS011;2860;54.284;10.158;2023-10-13T00:30:17;10.95;;;2.40;;
5674;SDS011;2860;54.284;10.158;2023-10-13T00:32:58;8.98;;;2.55;;
5674;SDS011;2860;54.284;10.158;2023-10-13T00:35:25;8.95;;;3.50;;
5674;SDS011;2860;54.284;10.158;2023-10-13T00:37:57;5.25;;;2.67;;
5674;SDS011;2860;54.284;10.158;2023-10-13T00:40:29;12.48;;;2.92;;
5674;SDS011;2860;54.284;10.158;2023-10-13T00:42:55;9.25;;;2.35;;
5674;SDS011;2860;54.284;10.158;2023-10-13T00:45:28;6.28;;;3.35;;
5674;SDS011;2860;54.284;10.158;2023-10-13T00:47:57;3.65;;;2.78;;
5674;SDS011;2860;54.284;10.158;2023-10-13T00:50:26;5.63;;;3.17;;
5674;SDS011;2860;54.284;10.158;2023-10-13T00:52:52;6.40;;;2.95;;
5674;SDS011;2860;54.284;10.158;2023-10-13T00:55:20;6.55;;;2.58;;
5674;SDS011;2860;54.284;10.158;2023-10-13T00:57:49;10.25;;;3.85;;
5674;SDS011;2860;54.284;10.158;2023-10-13T01:00:22;9.93;;;3.00;;
5674;SDS011;2860;54.284;10.158;2023-10-13T01:02:53;12.77;;;4.13;;
5674;SDS011;2860;54.284;10.158;2023-10-13T01:05:25;10.70;;;3.40;;
5674;SDS011;2860;54.284;10.158;2023-10-13T01:07:51;7.13;;;2.95;;
5674;SDS011;2860;54.284;10.158;2023-10-13T01:10:19;4.22;;;3.25;;
5674;SDS011;2860;54.284;10.158;2023-10-13T01:12:50;4.13;;;3.22;;
5674;SDS011;2860;54.284;10.158;2023-10-13T01:15:17;7.22;;;3.17;;
5674;SDS011;2860;54.284;10.158;2023-10-13T01:17:46;9.65;;;3.10;;
5674;SDS011;2860;54.284;10.158;2023-10-13T01:20:12;7.82;;;2.67;;
5674;SDS011;2860;54.284;10.158;2023-10-13T01:22:51;4.85;;;3.70;;
5674;SDS011;2860;54.284;10.158;2023-10-13T01:25:23;6.20;;;4.00;;
5674;SDS011;2860;54.284;10.158;2023-10-13T01:27:52;7.88;;;3.80;;
5674;SDS011;2860;54.284;10.158;2023-10-13T01:30:18;13.93;;;4.38;;
5674;SDS011;2860;54.284;10.158;2023-10-13T01:32:51;13.88;;;3.95;;
5674;SDS011;2860;54.284;10.158;2023-10-13T01:35:18;12.70;;;4.05;;
5674;SDS011;2860;54.284;10.158;2023-10-13T01:37:50;14.43;;;3.60;;
5674;SDS011;2860;54.284;10.158;2023-10-13T01:40:16;7.85;;;3.45;;
5674;SDS011;2860;54.284;10.158;2023-10-13T01:42:44;10.27;;;4.10;;
5674;SDS011;2860;54.284;10.158;2023-10-13T01:45:11;14.88;;;5.07;;
5674;SDS011;2860;54.284;10.158;2023-10-13T01:47:38;9.07;;;4.82;;
5674;SDS011;2860;54.284;10.158;2023-10-13T01:50:04;16.25;;;5.45;;
5674;SDS011;2860;54.284;10.158;2023-10-13T01:52:46;12.38;;;4.03;;
5674;SDS011;2860;54.284;10.158;2023-10-13T01:55:12;9.68;;;4.38;;
5674;SDS011;2860;54.284;10.158;2023-10-13T01:57:39;13.18;;;5.38;;
5674;SDS011;2860;54.284;10.158;2023-10-13T02:00:07;24.88;;;6.20;;
5674;SDS011;2860;54.284;10.158;2023-10-13T02:02:43;11.48;;;5.63;;
5674;SDS011;2860;54.284;10.158;2023-10-13T02:05:10;12.32;;;6.88;;
5674;SDS011;2860;54.284;10.158;2023-10-13T02:07:37;21.17;;;5.95;;
5674;SDS011;2860;54.284;10.158;2023-10-13T02:10:03;14.85;;;5.68;;
5674;SDS011;2860;54.284;10.158;2023-10-13T02:12:31;7.18;;;5.00;;
5674;SDS011;2860;54.284;10.158;2023-10-13T02:15:12;14.05;;;5.35;;
5674;SDS011;2860;54.284;10.158;2023-10-13T02:17:47;8.82;;;5.88;;
5674;SDS011;2860;54.284;10.158;2023-10-13T02:20:16;8.13;;;5.80;;
5674;SDS011;2860;54.284;10.158;2023-10-13T02:22:55;13.90;;;5.50;;
5674;SDS011;2860;54.284;10.158;2023-10-13T02:25:21;18.90;;;5.10;;
5674;SDS011;2860;54.284;10.158;2023-10-13T02:28:05;18.73;;;5.05;;
5674;SDS011;2860;54.284;10.158;2023-10-13T02:30:38;10.27;;;4.63;;
5674;SDS011;2860;54.284;10.158;2023-10-13T02:33:04;12.68;;;4.88;;
5674;SDS011;2860;54.284;10.158;2023-10-13T02:35:31;9.40;;;5.15;;
5674;SDS011;2860;54.284;10.158;2023-10-13T02:38:07;14.27;;;6.20;;
5674;SDS011;2860;54.284;10.158;2023-10-13T02:40:36;14.20;;;6.75;;
5674;SDS011;2860;54.284;10.158;2023-10-13T02:43:03;15.73;;;6.65;;
5674;SDS011;2860;54.284;10.158;2023-10-13T02:45:32;16.48;;;6.72;;
5674;SDS011;2860;54.284;10.158;2023-10-13T02:48:01;8.88;;;6.07;;
5674;SDS011;2860;54.284;10.158;2023-10-13T02:50:42;15.60;;;6.07;;
5674;SDS011;2860;54.284;10.158;2023-10-13T02:53:10;16.85;;;7.35;;
5674;SDS011;2860;54.284;10.158;2023-10-13T02:55:59;8.77;;;7.35;;
5674;SDS011;2860;54.284;10.158;2023-10-13T02:58:29;18.42;;;7.78;;
5674;SDS011;2860;54.284;10.158;2023-10-13T03:01:04;22.85;;;8.82;;
5674;SDS011;2860;54.284;10.158;2023-10-13T03:03:48;38.42;;;9.90;;
5674;SDS011;2860;54.284;10.158;2023-10-13T03:06:19;41.40;;;9.77;;
5674;SDS011;2860;54.284;10.158;2023-10-13T03:08:49;32.30;;;10.07;;
5674;SDS011;2860;54.284;10.158;2023-10-13T03:11:16;31.20;;;10.80;;
5674;SDS011;2860;54.284;10.158;2023-10-13T03:13:46;27.33;;;11.18;;
5674;SDS011;2860;54.284;10.158;2023-10-13T03:16:15;38.03;;;12.75;;
5674;SDS011;2860;54.284;10.158;2023-10-13T03:18:41;41.55;;;12.98;;
5674;SDS011;2860;54.284;10.158;2023-10-13T03:21:16;48.47;;;13.43;;
5674;SDS011;2860;54.284;10.158;2023-10-13T03:23:53;40.92;;;12.32;;
5674;SDS011;2860;54.284;10.158;2023-10-13T03:26:24;43.67;;;13.57;;
5674;SDS011;2860;54.284;10.158;2023-10-13T03:28:49;52.80;;;14.70;;
5674;SDS011;2860;54.284;10.158;2023-10-13T03:31:20;59.80;;;14.68;;
5674;SDS011;2860;54.284;10.158;2023-10-13T03:33:52;63.85;;;15.02;;
5674;SDS011;2860;54.284;10.158;2023-10-13T03:36:24;56.97;;;14.90;;
5674;SDS011;2860;54.284;10.158;2023-10-13T03:39:08;46.38;;;14.27;;
5674;SDS011;2860;54.284;10.158;2023-10-13T03:41:36;46.63;;;15.05;;
5674;SDS011;2860;54.284;10.158;2023-10-13T03:44:03;58.83;;;14.93;;
5674;SDS011;2860;54.284;10.158;2023-10-13T03:46:42;42.47;;;14.48;;
5674;SDS011;2860;54.284;10.158;2023-10-13T03:49:10;45.38;;;13.73;;
5674;SDS011;2860;54.284;10.158;2023-10-13T03:51:40;61.00;;;17.08;;
5674;SDS011;2860;54.284;10.158;2023-10-13T03:54:07;49.17;;;15.18;;
5674;SDS011;2860;54.284;10.158;2023-10-13T03:56:33;43.95;;;14.75;;
5674;SDS011;2860;54.284;10.158;2023-10-13T03:59:06;49.95;;;13.55;;
5674;SDS011;2860;54.284;10.158;2023-10-13T04:01:43;38.83;;;11.00;;
5674;SDS011;2860;54.284;10.158;2023-10-13T04:04:16;45.83;;;13.00;;
5674;SDS011;2860;54.284;10.158;2023-10-13T04:07:01;40.97;;;13.43;;
5674;SDS011;2860;54.284;10.158;2023-10-13T04:09:30;49.17;;;13.73;;
5674;SDS011;2860;54.284;10.158;2023-10-13T04:11:59;49.25;;;14.05;;
5674;SDS011;2860;54.284;10.158;2023-10-13T04:14:25;56.60;;;14.60;;
5674;SDS011;2860;54.284;10.158;2023-10-13T04:17:10;44.28;;;12.77;;
5674;SDS011;2860;54.284;10.158;2023-10-13T04:19:41;58.58;;;13.57;;
5674;SDS011;2860;54.284;10.158;2023-10-13T04:22:26;48.78;;;12.70;;
5674;SDS011;2860;54.284;10.158;2023-10-13T04:25:13;50.20;;;12.65;;
5674;SDS011;2860;54.284;10.158;2023-10-13T04:28:17;57.63;;;11.98;;
5674;SDS011;2860;54.284;10.158;2023-10-13T04:31:02;56.63;;;13.98;;
5674;SDS011;2860;54.284;10.158;2023-10-13T04:33:37;87.38;;;14.02;;
5674;SDS011;2860;54.284;10.158;2023-10-13T04:36:16;49.65;;;13.07;;
5674;SDS011;2860;54.284;10.158;2023-10-13T04:38:49;39.63;;;12.40;;
5674;SDS011;2860;54.284;10.158;2023-10-13T04:41:25;38.80;;;11.93;;
5674;SDS011;2860;54.284;10.158;2023-10-13T04:43:59;54.55;;;12.85;;
5674;SDS011;2860;54.284;10.158;2023-10-13T04:46:49;38.08;;;11.50;;
5674;SDS011;2860;54.284;10.158;2023-10-13T04:49:15;34.15;;;12.43;;
5674;SDS011;2860;54.284;10.158;2023-10-13T04:51:59;37.80;;;12.13;;
5674;SDS011;2860;54.284;10.158;2023-10-13T04:54:36;39.85;;;10.77;;
5674;SDS011;2860;54.284;10.158;2023-10-13T04:57:12;31.13;;;10.10;;
5674;SDS011;2860;54.284;10.158;2023-10-13T04:59:50;32.90;;;11.40;;
5674;SDS011;2860;54.284;10.158;2023-10-13T05:02:31;36.00;;;11.73;;
5674;SDS011;2860;54.284;10.158;2023-10-13T05:05:01;46.28;;;10.65;;
5674;SDS011;2860;54.284;10.158;2023-10-13T05:07:46;33.20;;;9.02;;
5674;SDS011;2860;54.284;10.158;2023-10-13T05:10:31;28.67;;;10.50;;
5674;SDS011;2860;54.284;10.158;2023-10-13T05:13:16;29.38;;;10.32;;
5674;SDS011;2860;54.284;10.158;2023-10-13T05:16:00;36.58;;;10.93;;
5674;SDS011;2860;54.284;10.158;2023-10-13T05:18:44;32.47;;;10.60;;
5674;SDS011;2860;54.284;10.158;2023-10-13T05:21:28;35.42;;;11.00;;
5674;SDS011;2860;54.284;10.158;2023-10-13T05:24:13;41.50;;;9.68;;
5674;SDS011;2860;54.284;10.158;2023-10-13T05:26:57;32.05;;;9.60;;
5674;SDS011;2860;54.284;10.158;2023-10-13T05:29:42;33.80;;;10.63;;
5674;SDS011;2860;54.284;10.158;2023-10-13T05:32:29;32.03;;;10.43;;
5674;SDS011;2860;54.284;10.158;2023-10-13T05:35:13;36.08;;;9.85;;
5674;SDS011;2860;54.284;10.158;2023-10-13T05:37:58;35.05;;;10.00;;
5674;SDS011;2860;54.284;10.158;2023-10-13T05:40:52;35.75;;;10.13;;
5674;SDS011;2860;54.284;10.158;2023-10-13T05:43:36;43.58;;;9.82;;
5674;SDS011;2860;54.284;10.158;2023-10-13T05:46:20;33.22;;;11.10;;
5674;SDS011;2860;54.284;10.158;2023-10-13T05:48:52;46.38;;;11.00;;
5674;SDS011;2860;54.284;10.158;2023-10-13T05:51:27;23.05;;;10.32;;
5674;SDS011;2860;54.284;10.158;2023-10-13T05:54:00;26.60;;;11.23;;
5674;SDS011;2860;54.284;10.158;2023-10-13T05:56:41;31.52;;;10.63;;
5674;SDS011;2860;54.284;10.158;2023-10-13T05:59:26;38.85;;;11.75;;
5674;SDS011;2860;54.284;10.158;2023-10-13T06:02:12;51.95;;;14.45;;
5674;SDS011;2860;54.284;10.158;2023-10-13T06:04:56;47.40;;;12.57;;
5674;SDS011;2860;54.284;10.158;2023-10-13T06:07:40;46.25;;;12.07;;
5674;SDS011;2860;54.284;10.158;2023-10-13T06:10:25;39.10;;;11.85;;
5674;SDS011;2860;54.284;10.158;2023-10-13T06:13:09;39.13;;;12.07;;
5674;SDS011;2860;54.284;10.158;2023-10-13T06:15:53;62.30;;;13.73;;
5674;SDS011;2860;54.284;10.158;2023-10-13T06:18:54;49.08;;;12.43;;
5674;SDS011;2860;54.284;10.158;2023-10-13T06:21:37;51.58;;;14.10;;
5674;SDS011;2860;54.284;10.158;2023-10-13T06:24:22;57.42;;;14.52;;
5674;SDS011;2860;54.284;10.158;2023-10-13T06:27:06;86.90;;;16.52;;
5674;SDS011;2860;54.284;10.158;2023-10-13T06:29:50;57.83;;;16.00;;
5674;SDS011;2860;54.284;10.158;2023-10-13T06:32:18;68.93;;;17.08;;
5674;SDS011;2860;54.284;10.158;2023-10-13T06:34:44;74.18;;;19.42;;
5674;SDS011;2860;54.284;10.158;2023-10-13T06:37:16;101.43;;;19.38;;
5674;SDS011;2860;54.284;10.158;2023-10-13T06:39:54;119.72;;;20.10;;
5674;SDS011;2860;54.284;10.158;2023-10-13T06:42:22;83.80;;;19.13;;
5674;SDS011;2860;54.284;10.158;2023-10-13T06:44:52;89.13;;;20.65;;
5674;SDS011;2860;54.284;10.158;2023-10-13T06:47:19;105.47;;;22.05;;
5674;SDS011;2860;54.284;10.158;2023-10-13T06:49:45;139.40;;;22.85;;
5674;SDS011;2860;54.284;10.158;2023-10-13T06:52:13;109.53;;;22.33;;
5674;SDS011;2860;54.284;10.158;2023-10-13T06:54:41;111.05;;;23.30;;
5674;SDS011;2860;54.284;10.158;2023-10-13T06:57:08;85.15;;;23.85;;
5674;SDS011;2860;54.284;10.158;2023-10-13T06:59:39;163.85;;;26.42;;
5674;SDS011;2860;54.284;10.158;2023-10-13T07:02:06;124.60;;;25.23;;
5674;SDS011;2860;54.284;10.158;2023-10-13T07:04:34;112.90;;;25.30;;
5674;SDS011;2860;54.284;10.158;2023-10-13T07:07:04;152.73;;;27.23;;
5674;SDS011;2860;54.284;10.158;2023-10-13T07:09:30;183.10;;;27.65;;
5674;SDS011;2860;54.284;10.158;2023-10-13T07:11:59;104.20;;;26.90;;
5674;SDS011;2860;54.284;10.158;2023-10-13T07:14:29;168.30;;;27.15;;
5674;SDS011;2860;54.284;10.158;2023-10-13T07:17:01;122.05;;;27.02;;
5674;SDS011;2860;54.284;10.158;2023-10-13T07:19:30;157.45;;;26.23;;
5674;SDS011;2860;54.284;10.158;2023-10-13T07:21:57;89.97;;;26.00;;
5674;SDS011;2860;54.284;10.158;2023-10-13T07:24:33;96.18;;;26.63;;
5674;SDS011;2860;54.284;10.158;2023-10-13T07:27:04;138.85;;;27.75;;
5674;SDS011;2860;54.284;10.158;2023-10-13T07:29:31;98.90;;;25.90;;
5674;SDS011;2860;54.284;10.158;2023-10-13T07:31:59;161.32;;;25.27;;
5674;SDS011;2860;54.284;10.158;2023-10-13T07:34:28;139.52;;;25.13;;
5674;SDS011;2860;54.284;10.158;2023-10-13T07:36:57;62.15;;;25.10;;
5674;SDS011;2860;54.284;10.158;2023-10-13T07:39:28;146.00;;;24.23;;
5674;SDS011;2860;54.284;10.158;2023-10-13T07:41:59;198.73;;;24.70;;
5674;SDS011;2860;54.284;10.158;2023-10-13T07:44:33;134.82;;;23.02;;
5674;SDS011;2860;54.284;10.158;2023-10-13T07:47:00;137.88;;;24.13;;
5674;SDS011;2860;54.284;10.158;2023-10-13T07:49:30;84.32;;;22.08;;
5674;SDS011;2860;54.284;10.158;2023-10-13T07:52:00;96.45;;;22.15;;
5674;SDS011;2860;54.284;10.158;2023-10-13T07:54:47;85.70;;;20.95;;
5674;SDS011;2860;54.284;10.158;2023-10-13T07:57:14;53.50;;;22.95;;
5674;SDS011;2860;54.284;10.158;2023-10-13T07:59:42;54.88;;;21.75;;
5674;SDS011;2860;54.284;10.158;2023-10-13T08:02:28;69.85;;;21.27;;
5674;SDS011;2860;54.284;10.158;2023-10-13T08:05:12;75.68;;;22.50;;
5674;SDS011;2860;54.284;10.158;2023-10-13T08:07:40;60.78;;;21.27;;
5674;SDS011;2860;54.284;10.158;2023-10-13T08:10:06;40.38;;;19.73;;
5674;SDS011;2860;54.284;10.158;2023-10-13T08:12:35;51.85;;;20.85;;
5674;SDS011;2860;54.284;10.158;2023-10-13T08:15:02;45.13;;;20.38;;
5674;SDS011;2860;54.284;10.158;2023-10-13T08:17:46;42.65;;;19.35;;
5674;SDS011;2860;54.284;10.158;2023-10-13T08:20:12;51.10;;;18.98;;
5674;SDS011;2860;54.284;10.158;2023-10-13T08:22:38;51.95;;;20.10;;
5674;SDS011;2860;54.284;10.158;2023-10-13T08:25:04;44.53;;;20.38;;
5674;SDS011;2860;54.284;10.158;2023-10-13T08:27:46;41.75;;;20.90;;
5674;SDS011;2860;54.284;10.158;2023-10-13T08:30:30;43.85;;;19.60;;
5674;SDS011;2860;54.284;10.158;2023-10-13T08:32:56;39.45;;;19.33;;
5674;SDS011;2860;54.284;10.158;2023-10-13T08:35:29;35.78;;;18.42;;
5674;SDS011;2860;54.284;10.158;2023-10-13T08:37:54;35.90;;;17.95;;
5674;SDS011;2860;54.284;10.158;2023-10-13T08:40:22;38.47;;;18.40;;
5674;SDS011;2860;54.284;10.158;2023-10-13T08:43:11;35.30;;;17.35;;
5674;SDS011;2860;54.284;10.158;2023-10-13T08:45:37;29.60;;;15.63;;
5674;SDS011;2860;54.284;10.158;2023-10-13T08:48:05;34.35;;;15.88;;
5674;SDS011;2860;54.284;10.158;2023-10-13T08:50:38;28.15;;;15.25;;
5674;SDS011;2860;54.284;10.158;2023-10-13T08:55:53;23.63;;;15.05;;
5674;SDS011;2860;54.284;10.158;2023-10-13T08:58:37;24.27;;;16.27;;
5674;SDS011;2860;54.284;10.158;2023-10-13T09:04:06;21.17;;;13.27;;
5674;SDS011;2860;54.284;10.158;2023-10-13T09:09:33;18.13;;;12.68;;
5674;SDS011;2860;54.284;10.158;2023-10-13T09:14:44;14.02;;;10.20;;
5674;SDS011;2860;54.284;10.158;2023-10-13T09:17:22;14.65;;;10.77;;
5674;SDS011;2860;54.284;10.158;2023-10-13T09:20:05;15.93;;;10.32;;
5674;SDS011;2860;54.284;10.158;2023-10-13T09:22:56;8.88;;;8.18;;
5674;SDS011;2860;54.284;10.158;2023-10-13T09:25:31;9.63;;;8.57;;
5674;SDS011;2860;54.284;10.158;2023-10-13T09:28:00;10.30;;;7.45;;
5674;SDS011;2860;54.284;10.158;2023-10-13T09:30:46;7.55;;;6.93;;
5674;SDS011;2860;54.284;10.158;2023-10-13T09:35:58;6.88;;;6.38;;
5674;SDS011;2860;54.284;10.158;2023-10-13T09:38:24;6.68;;;6.07;;
5674;SDS011;2860;54.284;10.158;2023-10-13T09:40:51;6.30;;;5.80;;
5674;SDS011;2860;54.284;10.158;2023-10-13T09:43:22;6.22;;;5.82;;
5674;SDS011;2860;54.284;10.158;2023-10-13T09:45:58;5.93;;;5.55;;
5674;SDS011;2860;54.284;10.158;2023-10-13T09:48:31;6.72;;;5.90;;
5674;SDS011;2860;54.284;10.158;2023-10-13T09:51:00;6.20;;;5.80;;
5674;SDS011;2860;54.284;10.158;2023-10-13T09:53:29;6.32;;;5.93;;
5674;SDS011;2860;54.284;10.158;2023-10-13T09:55:59;6.22;;;5.72;;
5674;SDS011;2860;54.284;10.158;2023-10-13T09:58:42;5.43;;;5.13;;
5674;SDS011;2860;54.284;10.158;2023-10-13T10:01:17;5.60;;;5.15;;
5674;SDS011;2860;54.284;10.158;2023-10-13T10:04:13;4.90;;;4.72;;
5674;SDS011;2860;54.284;10.158;2023-10-13T10:07:00;5.15;;;4.78;;
5674;SDS011;2860;54.284;10.158;2023-10-13T10:09:26;7.60;;;4.95;;
5674;SDS011;2860;54.284;10.158;2023-10-13T10:18:00;5.03;;;4.82;;
5674;SDS011;2860;54.284;10.158;2023-10-13T10:20:34;5.55;;;5.15;;
5674;SDS011;2860;54.284;10.158;2023-10-13T10:23:09;6.03;;;5.63;;
5674;SDS011;2860;54.284;10.158;2023-10-13T10:25:46;5.90;;;5.68;;
5674;SDS011;2860;54.284;10.158;2023-10-13T10:28:13;6.68;;;6.15;;
5674;SDS011;2860;54.284;10.158;2023-10-13T10:30:41;6.78;;;6.10;;
5674;SDS011;2860;54.284;10.158;2023-10-13T10:33:08;6.55;;;6.15;;
5674;SDS011;2860;54.284;10.158;2023-10-13T10:35:41;6.72;;;6.43;;
5674;SDS011;2860;54.284;10.158;2023-10-13T10:38:14;7.38;;;6.70;;
5674;SDS011;2860;54.284;10.158;2023-10-13T10:40:58;11.27;;;7.93;;
5674;SDS011;2860;54.284;10.158;2023-10-13T10:46:13;8.50;;;7.55;;
5674;SDS011;2860;54.284;10.158;2023-10-13T10:49:03;7.72;;;7.03;;
5674;SDS011;2860;54.284;10.158;2023-10-13T10:51:33;9.35;;;8.13;;
5674;SDS011;2860;54.284;10.158;2023-10-13T10:54:17;7.97;;;7.05;;
5674;SDS011;2860;54.284;10.158;2023-10-13T10:56:43;7.72;;;7.03;;
5674;SDS011;2860;54.284;10.158;2023-10-13T10:59:09;7.63;;;6.80;;
5674;SDS011;2860;54.284;10.158;2023-10-13T11:01:45;8.15;;;6.78;;
5674;SDS011;2860;54.284;10.158;2023-10-13T11:04:17;13.18;;;8.43;;
5674;SDS011;2860;54.284;10.158;2023-10-13T11:06:46;9.02;;;7.20;;
5674;SDS011;2860;54.284;10.158;2023-10-13T11:09:13;7.13;;;6.63;;
5674;SDS011;2860;54.284;10.158;2023-10-13T11:11:51;8.65;;;7.00;;
5674;SDS011;2860;54.284;10.158;2023-10-13T11:14:35;9.50;;;7.20;;
5674;SDS011;2860;54.284;10.158;2023-10-13T11:17:03;8.68;;;7.95;;
5674;SDS011;2860;54.284;10.158;2023-10-13T11:19:38;8.48;;;7.78;;
5674;SDS011;2860;54.284;10.158;2023-10-13T11:22:16;7.88;;;7.25;;
5674;SDS011;2860;54.284;10.158;2023-10-13T11:25:06;7.80;;;7.10;;
5674;SDS011;2860;54.284;10.158;2023-10-13T11:27:38;8.77;;;7.95;;
5674;SDS011;2860;54.284;10.158;2023-10-13T11:30:15;11.15;;;7.22;;
5674;SDS011;2860;54.284;10.158;2023-10-13T11:32:45;9.15;;;7.25;;
5674;SDS011;2860;54.284;10.158;2023-10-13T11:35:22;6.88;;;6.28;;
5674;SDS011;2860;54.284;10.158;2023-10-13T11:37:50;6.53;;;5.80;;
5674;SDS011;2860;54.284;10.158;2023-10-13T11:40:28;9.60;;;6.57;;
5674;SDS011;2860;54.284;10.158;2023-10-13T11:43:24;11.93;;;6.35;;
5674;SDS011;2860;54.284;10.158;2023-10-13T11:45:51;7.85;;;6.13;;
5674;SDS011;2860;54.284;10.158;2023-10-13T11:48:38;8.80;;;6.13;;
5674;SDS011;2860;54.284;10.158;2023-10-13T11:51:07;10.93;;;7.13;;
5674;SDS011;2860;54.284;10.158;2023-10-13T11:53:43;7.90;;;6.78;;
5674;SDS011;2860;54.284;10.158;2023-10-13T11:56:10;15.88;;;6.55;;
5674;SDS011;2860;54.284;10.158;2023-10-13T11:58:36;7.47;;;6.70;;
5674;SDS011;2860;54.284;10.158;2023-10-13T12:01:01;12.90;;;6.80;;
5674;SDS011;2860;54.284;10.158;2023-10-13T12:03:33;11.13;;;7.35;;
5674;SDS011;2860;54.284;10.158;2023-10-13T12:06:17;9.55;;;6.65;;
5674;SDS011;2860;54.284;10.158;2023-10-13T12:09:11;13.65;;;7.10;;
5674;SDS011;2860;54.284;10.158;2023-10-13T12:11:46;8.60;;;6.80;;
5674;SDS011;2860;54.284;10.158;2023-10-13T12:14:15;8.65;;;7.13;;
5674;SDS011;2860;54.284;10.158;2023-10-13T12:16:52;10.25;;;7.68;;
5674;SDS011;2860;54.284;10.158;2023-10-13T12:19:24;13.23;;;7.07;;
5674;SDS011;2860;54.284;10.158;2023-10-13T12:21:51;11.20;;;7.03;;
5674;SDS011;2860;54.284;10.158;2023-10-13T12:24:21;10.27;;;7.20;;
5674;SDS011;2860;54.284;10.158;2023-10-13T12:27:06;15.32;;;8.43;;
5674;SDS011;2860;54.284;10.158;2023-10-13T12:29:47;12.52;;;8.07;;
5674;SDS011;2860;54.284;10.158;2023-10-13T12:32:13;8.55;;;7.72;;
5674;SDS011;2860;54.284;10.158;2023-10-13T12:34:39;15.10;;;9.35;;
5674;SDS011;2860;54.284;10.158;2023-10-13T12:37:24;14.10;;;9.35;;
5674;SDS011;2860;54.284;10.158;2023-10-13T12:40:09;13.63;;;9.13;;
5674;SDS011;2860;54.284;10.158;2023-10-13T12:43:01;9.75;;;8.60;;
5674;SDS011;2860;54.284;10.158;2023-10-13T12:45:47;17.02;;;9.95;;
5674;SDS011;2860;54.284;10.158;2023-10-13T12:48:32;13.05;;;9.23;;
5674;SDS011;2860;54.284;10.158;2023-10-13T12:51:17;12.07;;;8.20;;
5674;SDS011;2860;54.284;10.158;2023-10-13T12:54:00;13.35;;;8.77;;
5674;SDS011;2860;54.284;10.158;2023-10-13T12:56:45;9.88;;;8.90;;
5674;SDS011;2860;54.284;10.158;2023-10-13T12:59:10;10.68;;;8.15;;
5674;SDS011;2860;54.284;10.158;2023-10-13T13:01:40;9.75;;;8.05;;
5674;SDS011;2860;54.284;10.158;2023-10-13T13:04:09;10.23;;;9.35;;
5674;SDS011;2860;54.284;10.158;2023-10-13T13:06:49;12.15;;;9.15;;
5674;SDS011;2860;54.284;10.158;2023-10-13T13:09:15;13.13;;;9.00;;
5674;SDS011;2860;54.284;10.158;2023-10-13T13:11:50;13.23;;;8.15;;
5674;SDS011;2860;54.284;10.158;2023-10-13T13:14:24;10.20;;;9.25;;
5674;SDS011;2860;54.284;10.158;2023-10-13T13:16:59;9.73;;;8.05;;
5674;SDS011;2860;54.284;10.158;2023-10-13T13:19:29;9.80;;;7.75;;
5674;SDS011;2860;54.284;10.158;2023-10-13T13:21:58;11.85;;;7.47;;
5674;SDS011;2860;54.284;10.158;2023-10-13T13:24:24;15.77;;;7.93;;
5674;SDS011;2860;54.284;10.158;2023-10-13T13:26:54;19.70;;;7.45;;
5674;SDS011;2860;54.284;10.158;2023-10-13T13:29:28;9.95;;;7.70;;
5674;SDS011;2860;54.284;10.158;2023-10-13T13:31:54;10.93;;;8.10;;
5674;SDS011;2860;54.284;10.158;2023-10-13T13:34:20;9.90;;;6.70;;
5674;SDS011;2860;54.284;10.158;2023-10-13T13:36:47;19.17;;;7.60;;
5674;SDS011;2860;54.284;10.158;2023-10-13T13:39:17;10.75;;;7.28;;
5674;SDS011;2860;54.284;10.158;2023-10-13T13:41:53;19.02;;;7.00;;
5674;SDS011;2860;54.284;10.158;2023-10-13T13:44:22;10.48;;;6.50;;
5674;SDS011;2860;54.284;10.158;2023-10-13T13:47:01;13.40;;;7.50;;
5674;SDS011;2860;54.284;10.158;2023-10-13T13:49:36;14.60;;;7.45;;
5674;SDS011;2860;54.284;10.158;2023-10-13T13:52:05;11.05;;;6.93;;
5674;SDS011;2860;54.284;10.158;2023-10-13T13:54:34;10.30;;;6.88;;
5674;SDS011;2860;54.284;10.158;2023-10-13T13:57:00;16.38;;;7.10;;
5674;SDS011;2860;54.284;10.158;2023-10-13T13:59:26;12.45;;;7.28;;
5674;SDS011;2860;54.284;10.158;2023-10-13T14:01:54;7.53;;;6.55;;
5674;SDS011;2860;54.284;10.158;2023-10-13T14:04:24;9.95;;;6.18;;
5674;SDS011;2860;54.284;10.158;2023-10-13T14:06:49;6.57;;;5.32;;
5674;SDS011;2860;54.284;10.158;2023-10-13T14:09:15;16.42;;;6.63;;
5674;SDS011;2860;54.284;10.158;2023-10-13T14:11:42;11.70;;;6.38;;
5674;SDS011;2860;54.284;10.158;2023-10-13T14:14:36;10.68;;;6.13;;
5674;SDS011;2860;54.284;10.158;2023-10-13T14:17:02;9.40;;;5.30;;
5674;SDS011;2860;54.284;10.158;2023-10-13T14:19:31;12.43;;;5.32;;
5674;SDS011;2860;54.284;10.158;2023-10-13T14:21:57;13.20;;;5.50;;
5674;SDS011;2860;54.284;10.158;2023-10-13T14:24:24;14.75;;;6.25;;
5674;SDS011;2860;54.284;10.158;2023-10-13T14:26:58;17.80;;;5.57;;
5674;SDS011;2860;54.284;10.158;2023-10-13T14:29:37;7.38;;;6.05;;
5674;SDS011;2860;54.284;10.158;2023-10-13T14:32:10;7.97;;;6.00;;
5674;SDS011;2860;54.284;10.158;2023-10-13T14:34:42;12.63;;;5.00;;
5674;SDS011;2860;54.284;10.158;2023-10-13T14:37:08;6.70;;;5.45;;
5674;SDS011;2860;54.284;10.158;2023-10-13T14:39:38;11.50;;;6.15;;
5674;SDS011;2860;54.284;10.158;2023-10-13T14:42:04;7.80;;;5.75;;
5674;SDS011;2860;54.284;10.158;2023-10-13T14:44:32;14.52;;;7.05;;
5674;SDS011;2860;54.284;10.158;2023-10-13T14:46:58;10.82;;;5.90;;
5674;SDS011;2860;54.284;10.158;2023-10-13T14:49:25;12.90;;;7.22;;
5674;SDS011;2860;54.284;10.158;2023-10-13T14:51:50;16.73;;;6.82;;
5674;SDS011;2860;54.284;10.158;2023-10-13T14:54:16;12.77;;;7.25;;
5674;SDS011;2860;54.284;10.158;2023-10-13T14:56:41;15.93;;;8.05;;
5674;SDS011;2860;54.284;10.158;2023-10-13T14:59:07;17.38;;;7.35;;
5674;SDS011;2860;54.284;10.158;2023-10-13T15:01:41;16.33;;;8.65;;
5674;SDS011;2860;54.284;10.158;2023-10-13T15:04:07;14.60;;;8.68;;
5674;SDS011;2860;54.284;10.158;2023-10-13T15:06:33;9.85;;;7.57;;
5674;SDS011;2860;54.284;10.158;2023-10-13T15:08:59;9.98;;;7.88;;
5674;SDS011;2860;54.284;10.158;2023-10-13T15:11:26;15.98;;;8.45;;
5674;SDS011;2860;54.284;10.158;2023-10-13T15:14:00;15.48;;;8.23;;
5674;SDS011;2860;54.284;10.158;2023-10-13T15:16:31;15.52;;;7.60;;
5674;SDS011;2860;54.284;10.158;2023-10-13T15:18:58;24.20;;;8.57;;
5674;SDS011;2860;54.284;10.158;2023-10-13T15:21:29;15.68;;;8.57;;
5674;SDS011;2860;54.284;10.158;2023-10-13T15:23:59;18.63;;;7.80;;
5674;SDS011;2860;54.284;10.158;2023-10-13T15:26:45;14.63;;;8.10;;
5674;SDS011;2860;54.284;10.158;2023-10-13T15:29:17;17.23;;;9.32;;
5674;SDS011;2860;54.284;10.158;2023-10-13T15:31:44;15.48;;;8.52;;
5674;SDS011;2860;54.284;10.158;2023-10-13T15:34:39;14.00;;;8.18;;
5674;SDS011;2860;54.284;10.158;2023-10-13T15:37:05;22.95;;;10.95;;
5674;SDS011;2860;54.284;10.158;2023-10-13T15:39:30;14.05;;;8.95;;
5674;SDS011;2860;54.284;10.158;2023-10-13T15:41:56;26.40;;;10.80;;
5674;SDS011;2860;54.284;10.158;2023-10-13T15:44:27;26.65;;;10.70;;